Time;durP1;ratioP1;P1;durP2;ratioP2;P2;SDS_P1;SDS_P2;PMS_P1;PMS_P2;Temp;Humidity;BMP_temperature;BMP_pressure;BME280_temperature;BME280_humidity;BME280_pressure;Samples;Min_cycle;Max_cycle;Signal;HPM_P1;HPM_P2
2021/08/14 00:02:10;;;;;;;22.80;20.58;;;;;;;;;;5059329;28;21178;-87
2021/08/14 00:04:38;;;;;;;23.10;20.85;;;;;;;;;;5059155;28;20906;-87
2021/08/14 00:07:05;;;;;;;23.88;21.48;;;;;;;;;;5059092;28;20398;-87
2021/08/14 00:09:34;;;;;;;23.15;21.08;;;;;;;;;;5059339;28;20406;-87
2021/08/14 00:12:01;;;;;;;23.75;21.45;;;;;;;;;;5053759;28;20495;-87
2021/08/14 00:14:28;;;;;;;23.10;21.00;;;;;;;;;;5057063;28;20466;-87
2021/08/14 00:16:55;;;;;;;24.60;22.23;;;;;;;;;;5048607;28;20597;-88
2021/08/14 00:19:22;;;;;;;23.98;21.48;;;;;;;;;;5059029;28;20425;-87
2021/08/14 00:21:50;;;;;;;25.00;22.65;;;;;;;;;;5056655;28;20406;-87
2021/08/14 00:24:17;;;;;;;23.60;21.33;;;;;;;;;;5058754;28;20407;-88
2021/08/14 00:26:44;;;;;;;23.05;20.98;;;;;;;;;;5058717;28;20398;-88
2021/08/14 00:29:11;;;;;;;23.60;21.10;;;;;;;;;;5057285;28;20410;-88
2021/08/14 00:31:38;;;;;;;23.38;21.08;;;;;;;;;;5058523;28;20402;-88
2021/08/14 00:34:04;;;;;;;24.07;21.77;;;;;;;;;;5058651;28;20398;-87
2021/08/14 00:36:31;;;;;;;24.80;22.23;;;;;;;;;;5058461;28;20405;-86
2021/08/14 00:39:00;;;;;;;24.95;22.60;;;;;;;;;;5058076;28;20436;-87
2021/08/14 00:41:26;;;;;;;25.50;22.98;;;;;;;;;;5052349;28;20493;-87
2021/08/14 00:43:54;;;;;;;24.80;22.52;;;;;;;;;;5058825;28;20645;-88
2021/08/14 00:46:21;;;;;;;25.42;22.83;;;;;;;;;;5055053;28;20394;-87
2021/08/14 00:48:47;;;;;;;25.95;23.45;;;;;;;;;;5058154;28;20490;-87
2021/08/14 00:51:14;;;;;;;24.73;22.42;;;;;;;;;;5058687;28;20453;-88
2021/08/14 00:53:41;;;;;;;25.30;22.80;;;;;;;;;;5058013;28;20406;-88
2021/08/14 00:56:09;;;;;;;24.58;22.17;;;;;;;;;;5058409;28;21085;-87
2021/08/14 00:58:36;;;;;;;25.13;22.63;;;;;;;;;;5057938;28;20413;-87
2021/08/14 01:01:04;;;;;;;24.40;22.00;;;;;;;;;;5058136;28;20436;-88
2021/08/14 01:03:32;;;;;;;25.27;22.67;;;;;;;;;;5061478;28;20397;-88
2021/08/14 01:05:59;;;;;;;24.00;21.70;;;;;;;;;;5061425;28;21281;-88
2021/08/14 01:08:26;;;;;;;23.83;21.63;;;;;;;;;;5056006;28;20406;-87
2021/08/14 01:10:53;;;;;;;24.00;21.70;;;;;;;;;;5060908;28;20402;-87
2021/08/14 01:13:22;;;;;;;23.02;20.85;;;;;;;;;;5042544;28;20756;-88
2021/08/14 01:15:51;;;;;;;23.17;20.90;;;;;;;;;;5053153;28;20411;-88
2021/08/14 01:18:19;;;;;;;24.90;21.17;;;;;;;;;;5060389;28;20408;-88
2021/08/14 01:20:47;;;;;;;23.40;21.02;;;;;;;;;;5059202;28;20408;-87
2021/08/14 01:23:16;;;;;;;21.58;19.67;;;;;;;;;;5059115;28;20484;-87
2021/08/14 01:25:43;;;;;;;21.57;19.37;;;;;;;;;;5058815;28;20402;-88
2021/08/14 01:28:13;;;;;;;21.45;19.45;;;;;;;;;;5059043;28;20463;-87
2021/08/14 01:30:42;;;;;;;21.23;19.08;;;;;;;;;;5058992;28;20455;-88
2021/08/14 01:33:09;;;;;;;21.48;19.38;;;;;;;;;;5058930;28;20499;-88
2021/08/14 01:35:38;;;;;;;20.13;18.20;;;;;;;;;;5058804;28;20802;-88
2021/08/14 01:38:05;;;;;;;20.88;18.60;;;;;;;;;;5058375;28;20695;-88
2021/08/14 01:40:33;;;;;;;20.25;18.15;;;;;;;;;;5058790;28;20421;-88
2021/08/14 01:42:59;;;;;;;18.65;16.90;;;;;;;;;;5058382;28;20492;-87
2021/08/14 01:45:28;;;;;;;20.05;18.15;;;;;;;;;;5052598;28;20406;-88
2021/08/14 01:47:54;;;;;;;19.90;17.90;;;;;;;;;;5058889;28;20451;-88
2021/08/14 01:50:21;;;;;;;19.13;17.23;;;;;;;;;;5058332;28;20415;-88
2021/08/14 01:52:48;;;;;;;19.25;17.30;;;;;;;;;;5059141;28;21322;-88
2021/08/14 01:55:15;;;;;;;18.00;16.35;;;;;;;;;;5059645;28;20412;-88
2021/08/14 01:57:42;;;;;;;18.25;16.48;;;;;;;;;;5059130;28;20401;-87
2021/08/14 02:00:10;;;;;;;18.67;16.77;;;;;;;;;;5059408;28;20430;-88
2021/08/14 02:02:38;;;;;;;18.48;16.80;;;;;;;;;;5042692;28;20489;-88
2021/08/14 02:05:05;;;;;;;18.73;16.83;;;;;;;;;;5044687;28;20408;-87
2021/08/14 02:07:32;;;;;;;18.40;16.70;;;;;;;;;;5044868;28;20795;-88
2021/08/14 02:09:59;;;;;;;17.33;15.65;;;;;;;;;;5044186;28;20457;-87
2021/08/14 02:12:26;;;;;;;17.08;15.48;;;;;;;;;;5043646;28;20427;-88
2021/08/14 02:14:53;;;;;;;18.05;16.15;;;;;;;;;;5043917;28;20880;-88
2021/08/14 02:17:20;;;;;;;17.17;15.57;;;;;;;;;;5044910;28;20407;-88
2021/08/14 02:19:48;;;;;;;18.02;16.33;;;;;;;;;;5044389;28;20424;-88
2021/08/14 02:22:14;;;;;;;17.75;16.15;;;;;;;;;;5045200;28;20407;-88
2021/08/14 02:24:41;;;;;;;17.50;15.70;;;;;;;;;;5044145;28;20408;-87
2021/08/14 02:27:08;;;;;;;16.60;15.20;;;;;;;;;;5044373;28;20412;-88
2021/08/14 02:29:35;;;;;;;17.02;15.40;;;;;;;;;;5044234;28;20412;-88
2021/08/14 02:32:02;;;;;;;17.52;15.82;;;;;;;;;;5044529;28;20403;-88
2021/08/14 02:34:29;;;;;;;16.92;15.20;;;;;;;;;;5044419;28;20407;-88
2021/08/14 02:36:57;;;;;;;17.80;16.08;;;;;;;;;;5043648;28;20404;-88
2021/08/14 02:39:24;;;;;;;16.83;15.20;;;;;;;;;;5044263;28;20435;-87
2021/08/14 02:41:51;;;;;;;16.42;14.95;;;;;;;;;;5039845;28;20403;-88
2021/08/14 02:44:18;;;;;;;16.83;15.32;;;;;;;;;;5044039;28;20769;-87
2021/08/14 02:46:45;;;;;;;17.23;15.60;;;;;;;;;;5044069;28;20399;-88
2021/08/14 02:49:11;;;;;;;17.60;16.00;;;;;;;;;;5043794;28;20453;-88
2021/08/14 02:51:38;;;;;;;17.65;15.77;;;;;;;;;;5043893;28;20407;-88
2021/08/14 02:54:06;;;;;;;17.63;15.93;;;;;;;;;;5043819;28;20403;-88
2021/08/14 02:56:33;;;;;;;17.50;15.98;;;;;;;;;;5044237;28;20407;-88
2021/08/14 02:59:00;;;;;;;16.27;14.88;;;;;;;;;;5043381;28;20427;-88
2021/08/14 03:01:27;;;;;;;16.73;15.30;;;;;;;;;;5043709;28;20575;-88
2021/08/14 03:03:54;;;;;;;17.63;15.77;;;;;;;;;;5043385;28;20404;-87
2021/08/14 03:06:25;;;;;;;17.53;15.73;;;;;;;;;;5043820;28;20403;-87
2021/08/14 03:08:52;;;;;;;17.05;15.35;;;;;;;;;;5039297;28;20740;-87
2021/08/14 03:11:20;;;;;;;16.45;14.85;;;;;;;;;;5043481;28;20396;-88
2021/08/14 03:13:47;;;;;;;16.40;14.95;;;;;;;;;;5043405;28;20408;-88
2021/08/14 03:16:14;;;;;;;17.05;15.50;;;;;;;;;;5043446;28;20403;-87
2021/08/14 03:18:41;;;;;;;16.42;14.93;;;;;;;;;;5043798;28;20404;-87
2021/08/14 03:21:08;;;;;;;15.95;14.40;;;;;;;;;;5043656;28;20423;-88
2021/08/14 03:23:35;;;;;;;16.25;14.75;;;;;;;;;;5043209;28;20409;-88
2021/08/14 03:26:02;;;;;;;16.20;14.80;;;;;;;;;;5043103;28;20453;-88
2021/08/14 03:28:30;;;;;;;17.10;15.37;;;;;;;;;;5043123;28;21018;-87
2021/08/14 03:30:57;;;;;;;16.67;15.13;;;;;;;;;;5042847;28;20444;-87
2021/08/14 03:33:24;;;;;;;16.48;15.02;;;;;;;;;;5043405;28;20400;-88
2021/08/14 03:35:51;;;;;;;16.95;15.30;;;;;;;;;;5043139;28;20419;-88
2021/08/14 03:38:18;;;;;;;16.75;15.15;;;;;;;;;;5043458;28;20495;-87
2021/08/14 03:40:44;;;;;;;16.37;14.87;;;;;;;;;;5042740;28;20799;-88
2021/08/14 03:43:11;;;;;;;17.33;15.52;;;;;;;;;;5043218;28;20453;-88
2021/08/14 03:45:39;;;;;;;16.30;14.70;;;;;;;;;;5042678;28;20403;-88
2021/08/14 03:48:06;;;;;;;16.23;14.82;;;;;;;;;;5043298;28;20442;-87
2021/08/14 03:50:33;;;;;;;16.33;14.73;;;;;;;;;;5042766;28;20412;-88
2021/08/14 03:53:00;;;;;;;16.75;15.13;;;;;;;;;;5041405;28;20408;-88
2021/08/14 03:55:27;;;;;;;16.50;14.93;;;;;;;;;;5042989;28;20426;-88
2021/08/14 03:57:54;;;;;;;17.00;15.30;;;;;;;;;;5042449;28;20399;-88
2021/08/14 04:00:21;;;;;;;17.50;15.80;;;;;;;;;;5038941;28;20517;-88
2021/08/14 04:02:49;;;;;;;17.48;15.77;;;;;;;;;;5042300;28;20468;-88
2021/08/14 04:05:16;;;;;;;18.10;16.13;;;;;;;;;;5040092;28;20428;-88
2021/08/14 04:07:43;;;;;;;16.88;15.30;;;;;;;;;;5050448;28;21146;-87
2021/08/14 04:10:10;;;;;;;17.25;15.55;;;;;;;;;;5045268;28;20413;-88
2021/08/14 04:12:37;;;;;;;16.75;15.15;;;;;;;;;;5046004;28;20406;-88
2021/08/14 04:15:04;;;;;;;17.80;15.77;;;;;;;;;;5046137;28;20458;-88
2021/08/14 04:17:31;;;;;;;18.63;16.45;;;;;;;;;;5046253;28;20752;-88
2021/08/14 04:20:00;;;;;;;18.67;16.83;;;;;;;;;;5045090;28;20411;-88
2021/08/14 04:22:26;;;;;;;18.30;16.50;;;;;;;;;;5046127;28;20403;-87
2021/08/14 04:24:53;;;;;;;19.05;17.17;;;;;;;;;;5044866;28;20400;-87
2021/08/14 04:27:20;;;;;;;18.95;17.02;;;;;;;;;;5042410;28;20395;-88
2021/08/14 04:29:47;;;;;;;17.50;15.80;;;;;;;;;;5041293;28;20886;-87
2021/08/14 04:32:14;;;;;;;18.30;16.50;;;;;;;;;;5043513;28;20455;-88
2021/08/14 04:34:41;;;;;;;17.92;16.13;;;;;;;;;;5044061;28;20416;-88
2021/08/14 04:37:09;;;;;;;19.00;17.13;;;;;;;;;;5045693;28;20404;-88
2021/08/14 04:39:36;;;;;;;17.15;15.50;;;;;;;;;;5047163;28;20419;-88
2021/08/14 04:42:04;;;;;;;17.77;16.13;;;;;;;;;;5045068;28;20404;-88
2021/08/14 04:44:31;;;;;;;17.80;16.17;;;;;;;;;;5049289;28;20412;-88
2021/08/14 04:46:59;;;;;;;17.60;15.45;;;;;;;;;;5048869;28;20458;-88
2021/08/14 04:49:26;;;;;;;17.60;16.00;;;;;;;;;;5049165;28;20406;-87
2021/08/14 04:51:54;;;;;;;18.15;16.40;;;;;;;;;;5046858;28;20411;-87
2021/08/14 04:54:22;;;;;;;18.13;16.33;;;;;;;;;;5044000;28;20457;-88
2021/08/14 04:56:49;;;;;;;18.10;16.40;;;;;;;;;;5047305;28;20404;-87
2021/08/14 04:59:16;;;;;;;19.83;17.97;;;;;;;;;;5048151;28;20768;-88
2021/08/14 05:01:42;;;;;;;18.95;17.15;;;;;;;;;;5046220;28;20433;-88
2021/08/14 05:04:09;;;;;;;18.85;16.85;;;;;;;;;;5047697;28;20469;-88
2021/08/14 05:06:38;;;;;;;19.05;17.17;;;;;;;;;;5047167;28;20411;-87
2021/08/14 05:09:06;;;;;;;18.52;16.67;;;;;;;;;;5047529;28;20457;-87
2021/08/14 05:11:34;;;;;;;20.48;18.35;;;;;;;;;;5048415;28;20400;-88
2021/08/14 05:14:01;;;;;;;20.27;18.17;;;;;;;;;;5047445;28;20431;-88
2021/08/14 05:16:28;;;;;;;19.48;17.30;;;;;;;;;;5048238;28;20978;-88
2021/08/14 05:18:54;;;;;;;20.50;18.23;;;;;;;;;;5047422;28;20399;-88
2021/08/14 05:21:21;;;;;;;19.10;17.25;;;;;;;;;;5043456;28;20424;-87
2021/08/14 05:23:48;;;;;;;19.10;17.20;;;;;;;;;;5047542;28;20411;-88
2021/08/14 05:26:15;;;;;;;19.45;17.55;;;;;;;;;;5048175;28;20911;-88
2021/08/14 05:28:43;;;;;;;19.08;17.15;;;;;;;;;;5047974;28;20413;-88
2021/08/14 05:31:10;;;;;;;19.27;17.33;;;;;;;;;;5047526;28;20407;-88
2021/08/14 05:33:37;;;;;;;18.55;16.67;;;;;;;;;;5047587;28;20407;-88
2021/08/14 05:36:04;;;;;;;18.87;16.97;;;;;;;;;;5047687;28;20930;-88
2021/08/14 05:38:31;;;;;;;18.15;16.35;;;;;;;;;;5046731;28;20788;-88
2021/08/14 05:40:58;;;;;;;18.27;16.42;;;;;;;;;;5047340;28;20502;-88
2021/08/14 05:43:24;;;;;;;18.38;16.48;;;;;;;;;;5047207;28;20407;-88
2021/08/14 05:45:53;;;;;;;18.10;16.17;;;;;;;;;;5043310;28;20412;-87
2021/08/14 05:48:20;;;;;;;18.05;16.15;;;;;;;;;;5046216;28;20403;-88
2021/08/14 05:50:48;;;;;;;18.57;16.63;;;;;;;;;;5045639;28;20403;-88
2021/08/14 05:53:15;;;;;;;17.75;15.85;;;;;;;;;;5046979;28;20434;-88
2021/08/14 05:55:42;;;;;;;18.67;16.77;;;;;;;;;;5046468;28;20409;-87
2021/08/14 05:58:09;;;;;;;18.27;16.40;;;;;;;;;;5046720;28;20408;-87
2021/08/14 06:00:36;;;;;;;23.07;18.07;;;;;;;;;;5046682;28;20454;-87
2021/08/14 06:03:04;;;;;;;19.73;17.67;;;;;;;;;;5046736;28;20403;-88
2021/08/14 06:05:31;;;;;;;19.50;17.33;;;;;;;;;;5037365;28;20401;-88
2021/08/14 06:07:58;;;;;;;19.15;17.20;;;;;;;;;;5045746;28;20396;-87
2021/08/14 06:10:25;;;;;;;21.13;18.60;;;;;;;;;;5046492;28;20891;-87
2021/08/14 06:12:52;;;;;;;18.77;16.92;;;;;;;;;;5041954;28;20449;-88
2021/08/14 06:15:18;;;;;;;21.13;18.15;;;;;;;;;;5045801;28;20795;-88
2021/08/14 06:17:45;;;;;;;21.40;19.10;;;;;;;;;;5045926;28;20410;-88
2021/08/14 06:20:14;;;;;;;18.95;17.10;;;;;;;;;;5045539;28;20417;-88
2021/08/14 06:22:41;;;;;;;19.05;17.15;;;;;;;;;;5046198;28;20440;-88
2021/08/14 06:25:09;;;;;;;19.23;17.23;;;;;;;;;;5043435;28;20945;-87
2021/08/14 06:27:37;;;;;;;19.42;17.50;;;;;;;;;;5045767;28;20402;-87
2021/08/14 06:30:06;;;;;;;18.27;16.58;;;;;;;;;;5041270;28;20400;-87
2021/08/14 06:32:33;;;;;;;17.73;16.13;;;;;;;;;;5045565;28;20411;-87
2021/08/14 06:35:00;;;;;;;18.40;16.58;;;;;;;;;;5045165;28;20403;-87
2021/08/14 06:37:28;;;;;;;18.07;16.37;;;;;;;;;;5044632;28;20827;-87
2021/08/14 06:39:56;;;;;;;17.95;16.10;;;;;;;;;;5045038;28;20408;-88
2021/08/14 06:42:23;;;;;;;17.35;15.48;;;;;;;;;;5041589;28;20427;-87
2021/08/14 06:44:49;;;;;;;18.02;15.68;;;;;;;;;;5045041;28;20392;-87
2021/08/14 06:47:16;;;;;;;17.30;15.60;;;;;;;;;;5044777;28;21085;-86
2021/08/14 06:49:43;;;;;;;16.38;14.88;;;;;;;;;;5044729;28;20452;-86
2021/08/14 06:52:10;;;;;;;17.38;15.68;;;;;;;;;;5044326;28;20780;-86
2021/08/14 06:54:38;;;;;;;15.70;14.10;;;;;;;;;;5042474;28;20415;-88
2021/08/14 06:57:05;;;;;;;15.90;14.32;;;;;;;;;;5034918;28;20630;-88
2021/08/14 06:59:32;;;;;;;15.63;14.02;;;;;;;;;;5042749;28;20407;-87
2021/08/14 07:01:59;;;;;;;14.43;13.00;;;;;;;;;;5041521;28;20499;-89
2021/08/14 07:04:26;;;;;;;15.68;13.93;;;;;;;;;;5041670;28;20407;-87
2021/08/14 07:06:53;;;;;;;15.40;13.90;;;;;;;;;;5044892;28;20452;-90
2021/08/14 07:09:20;;;;;;;15.52;13.93;;;;;;;;;;5045850;28;20403;-92
2021/08/14 07:11:49;;;;;;;14.90;13.50;;;;;;;;;;5045215;28;20408;-93
2021/08/14 07:14:16;;;;;;;14.50;13.30;;;;;;;;;;5045231;28;20419;-93
2021/08/14 07:16:44;;;;;;;15.20;13.60;;;;;;;;;;5045968;28;20407;-92
2021/08/14 07:19:11;;;;;;;15.15;13.70;;;;;;;;;;5049886;28;20495;-93
2021/08/14 07:21:37;;;;;;;16.50;14.65;;;;;;;;;;5044445;28;20427;-93
2021/08/14 07:24:05;;;;;;;15.20;13.75;;;;;;;;;;5044875;28;20408;-94
2021/08/14 07:26:32;;;;;;;13.77;12.40;;;;;;;;;;5044822;28;20408;-93
2021/08/14 07:29:00;;;;;;;12.20;11.00;;;;;;;;;;5047850;28;20419;-93
2021/08/14 07:31:27;;;;;;;12.68;11.50;;;;;;;;;;5044964;28;20407;-94
2021/08/14 07:33:54;;;;;;;12.43;11.35;;;;;;;;;;5047038;28;20422;-93
2021/08/14 07:36:21;;;;;;;12.73;11.45;;;;;;;;;;5048529;28;20404;-92
2021/08/14 07:38:50;;;;;;;12.88;11.60;;;;;;;;;;5046888;28;20416;-93
2021/08/14 07:41:26;;;;;;;12.63;11.45;;;;;;;;;;5046035;28;20433;-94
2021/08/14 07:43:55;;;;;;;12.52;11.43;;;;;;;;;;5057837;28;20433;-92
2021/08/14 07:46:28;;;;;;;13.10;12.00;;;;;;;;;;5058833;28;20498;-91
2021/08/14 07:48:57;;;;;;;13.38;11.93;;;;;;;;;;5045518;28;20407;-93
2021/08/14 07:51:27;;;;;;;13.30;12.02;;;;;;;;;;5050221;28;20452;-93
2021/08/14 07:53:58;;;;;;;12.70;11.60;;;;;;;;;;5051514;28;20589;-90
2021/08/14 07:56:29;;;;;;;13.05;11.82;;;;;;;;;;5043860;28;20439;-93
2021/08/14 07:59:02;;;;;;;13.60;12.20;;;;;;;;;;5044199;28;20401;-93
2021/08/14 08:01:39;;;;;;;13.77;12.40;;;;;;;;;;5041591;28;20430;-94
2021/08/14 08:04:08;;;;;;;13.40;12.10;;;;;;;;;;5043022;28;20409;-93
2021/08/14 08:06:38;;;;;;;13.10;11.90;;;;;;;;;;5036975;28;20943;-92
2021/08/14 08:09:08;;;;;;;14.13;12.85;;;;;;;;;;5039092;28;20404;-93
2021/08/14 08:11:37;;;;;;;14.48;13.07;;;;;;;;;;5047411;28;20397;-94
2021/08/14 08:14:07;;;;;;;13.33;12.03;;;;;;;;;;5047017;28;20402;-93
2021/08/14 08:16:38;;;;;;;14.45;13.00;;;;;;;;;;5050767;28;21488;-94
2021/08/14 08:19:08;;;;;;;14.07;12.70;;;;;;;;;;5049119;28;20438;-91
2021/08/14 08:21:39;;;;;;;14.13;12.70;;;;;;;;;;5047535;28;20430;-90
2021/08/14 08:24:07;;;;;;;14.15;12.90;;;;;;;;;;5047272;28;20906;-90
2021/08/14 08:26:41;;;;;;;13.65;12.45;;;;;;;;;;5047848;28;20407;-90
2021/08/14 08:29:11;;;;;;;13.57;12.38;;;;;;;;;;5043613;28;20409;-90
2021/08/14 08:31:42;;;;;;;12.95;11.75;;;;;;;;;;5043121;28;20814;-90
2021/08/14 08:34:13;;;;;;;13.68;12.40;;;;;;;;;;5046685;28;20444;-89
2021/08/14 08:36:44;;;;;;;12.90;11.70;;;;;;;;;;5039152;28;20414;-89
2021/08/14 08:39:15;;;;;;;13.15;11.98;;;;;;;;;;5038998;28;20415;-89
2021/08/14 08:41:45;;;;;;;14.02;12.32;;;;;;;;;;5038262;28;20928;-90
2021/08/14 08:44:14;;;;;;;13.43;12.02;;;;;;;;;;5037022;28;20646;-90
2021/08/14 08:46:48;;;;;;;13.23;11.95;;;;;;;;;;5038480;28;20414;-89
2021/08/14 08:49:19;;;;;;;13.10;11.80;;;;;;;;;;5046763;28;20402;-90
2021/08/14 08:51:48;;;;;;;12.27;11.17;;;;;;;;;;5039124;28;20409;-90
2021/08/14 08:54:18;;;;;;;12.48;11.27;;;;;;;;;;5040687;28;20417;-91
2021/08/14 08:56:47;;;;;;;12.50;11.40;;;;;;;;;;5045279;28;21351;-90
2021/08/14 08:59:17;;;;;;;12.20;11.07;;;;;;;;;;5042113;28;20860;-90
2021/08/14 09:01:47;;;;;;;12.43;11.18;;;;;;;;;;5036873;28;20406;-90
2021/08/14 09:04:29;;;;;;;13.27;12.07;;;;;;;;;;5040307;28;20403;-90
2021/08/14 09:06:58;;;;;;;13.68;12.05;;;;;;;;;;5041311;28;20517;-88
2021/08/14 09:09:29;;;;;;;13.80;12.38;;;;;;;;;;5041057;28;20399;-90
2021/08/14 09:12:00;;;;;;;13.52;11.73;;;;;;;;;;5041565;28;20841;-89
2021/08/14 09:14:46;;;;;;;12.90;11.65;;;;;;;;;;5042681;28;21158;-89
2021/08/14 09:17:26;;;;;;;12.52;11.32;;;;;;;;;;5043320;28;20414;-90
2021/08/14 09:20:08;;;;;;;12.57;11.32;;;;;;;;;;5036134;28;20404;-89
2021/08/14 09:22:38;;;;;;;13.43;12.20;;;;;;;;;;5036020;28;20437;-90
2021/08/14 09:25:20;;;;;;;13.07;11.40;;;;;;;;;;5034651;28;20907;-90
2021/08/14 09:27:54;;;;;;;11.90;10.70;;;;;;;;;;5035400;28;20436;-89
2021/08/14 09:30:23;;;;;;;12.35;11.07;;;;;;;;;;5034521;28;20406;-90
2021/08/14 09:33:09;;;;;;;12.40;11.18;;;;;;;;;;5034204;28;20403;-89
2021/08/14 09:35:39;;;;;;;11.82;10.60;;;;;;;;;;5031651;28;20800;-90
2021/08/14 09:38:11;;;;;;;11.93;10.73;;;;;;;;;;5032428;28;20427;-90
2021/08/14 09:40:41;;;;;;;12.00;10.77;;;;;;;;;;5033859;28;20947;-90
2021/08/14 09:43:11;;;;;;;12.13;10.93;;;;;;;;;;5035465;28;20491;-90
2021/08/14 09:45:40;;;;;;;12.20;11.00;;;;;;;;;;5030624;28;20452;-91
2021/08/14 09:48:25;;;;;;;12.68;11.13;;;;;;;;;;5032261;28;20401;-94
2021/08/14 09:50:55;;;;;;;11.90;10.70;;;;;;;;;;5036829;28;20495;-86
2021/08/14 09:53:25;;;;;;;11.00;9.90;;;;;;;;;;5041454;28;20432;-90
2021/08/14 09:56:10;;;;;;;11.73;10.52;;;;;;;;;;5034639;28;20408;-91
2021/08/14 09:58:41;;;;;;;11.40;10.30;;;;;;;;;;5037655;28;20511;-91
2021/08/14 10:01:11;;;;;;;11.57;10.43;;;;;;;;;;5031196;28;20874;-90
2021/08/14 10:03:43;;;;;;;10.73;9.73;;;;;;;;;;5033545;28;20401;-90
2021/08/14 10:06:14;;;;;;;11.27;10.05;;;;;;;;;;5032661;28;20449;-90
2021/08/14 10:08:45;;;;;;;10.90;9.80;;;;;;;;;;5018124;28;20433;-91
2021/08/14 10:11:14;;;;;;;12.43;11.23;;;;;;;;;;5041797;28;20402;-90
2021/08/14 10:13:44;;;;;;;12.02;10.15;;;;;;;;;;5043480;28;20461;-89
2021/08/14 10:16:14;;;;;;;10.95;9.82;;;;;;;;;;5043606;28;20498;-89
2021/08/14 10:18:48;;;;;;;10.27;9.32;;;;;;;;;;5030133;28;20486;-90
2021/08/14 10:21:19;;;;;;;10.95;9.85;;;;;;;;;;5013317;28;20429;-90
2021/08/14 10:23:48;;;;;;;11.63;10.47;;;;;;;;;;5036444;28;20413;-91
2021/08/14 10:26:20;;;;;;;11.85;10.65;;;;;;;;;;5036158;28;20513;-88
2021/08/14 10:28:53;;;;;;;11.10;9.90;;;;;;;;;;5031853;28;20422;-89
2021/08/14 10:31:48;;;;;;;11.05;9.90;;;;;;;;;;5023339;28;20898;-91
2021/08/14 10:34:39;;;;;;;12.23;9.80;;;;;;;;;;5046071;28;20412;-90
2021/08/14 10:37:38;;;;;;;10.40;9.50;;;;;;;;;;5044918;28;20896;-90
2021/08/14 10:40:09;;;;;;;11.18;10.05;;;;;;;;;;4928842;28;20417;-91
2021/08/14 10:42:58;;;;;;;11.00;10.10;;;;;;;;;;5025849;22;20431;-96
2021/08/14 10:56:14;;;;;;;11.13;9.85;;;;;;;;;;5057070;28;20404;-96
2021/08/14 11:08:10;;;;;;;11.63;10.43;;;;;;;;;;5033799;28;20406;-96
2021/08/14 11:14:15;;;;;;;11.70;10.57;;;;;;;;;;5056629;28;20389;-96
2021/08/14 11:24:09;;;;;;;11.63;10.52;;;;;;;;;;5070021;28;20725;-96
2021/08/14 11:58:19;;;;;;;11.38;10.23;;;;;;;;;;5060609;28;20410;-96
2021/08/14 12:00:49;;;;;;;11.55;10.35;;;;;;;;;;5037395;28;20389;-96
2021/08/14 12:03:22;;;;;;;13.18;10.75;;;;;;;;;;5054393;28;20554;-96
2021/08/14 12:09:40;;;;;;;11.75;9.30;;;;;;;;;;5049507;28;20384;-96
2021/08/14 12:14:44;;;;;;;10.68;9.48;;;;;;;;;;5107292;22;20392;-96
2021/08/14 12:17:12;;;;;;;11.40;9.30;;;;;;;;;;5067822;28;20391;-96
2021/08/14 12:19:52;;;;;;;13.23;9.55;;;;;;;;;;5063495;28;20399;-96
2021/08/14 12:22:22;;;;;;;10.85;9.82;;;;;;;;;;5072777;28;20419;-96
2021/08/14 12:24:50;;;;;;;10.68;9.02;;;;;;;;;;5058385;28;20396;-96
2021/08/14 12:27:31;;;;;;;10.45;9.45;;;;;;;;;;5055913;28;20401;-95
2021/08/14 12:30:19;;;;;;;10.18;9.18;;;;;;;;;;5057696;28;20410;-95
2021/08/14 12:32:51;;;;;;;11.27;9.38;;;;;;;;;;5049932;28;20427;-96
2021/08/14 12:40:54;;;;;;;10.27;8.88;;;;;;;;;;5114170;22;20423;-94
2021/08/14 12:43:31;;;;;;;8.68;7.93;;;;;;;;;;5077629;28;20449;-96
2021/08/14 13:16:31;;;;;;;9.30;8.40;;;;;;;;;;5053973;28;20449;-96
2021/08/14 13:18:59;;;;;;;11.03;8.70;;;;;;;;;;5057172;28;20400;-96
2021/08/14 13:21:26;;;;;;;9.10;8.20;;;;;;;;;;5057954;28;20391;-96
2021/08/14 13:23:53;;;;;;;9.33;8.53;;;;;;;;;;5040057;28;20415;-96
2021/08/14 13:26:20;;;;;;;13.38;9.27;;;;;;;;;;5057034;28;20393;-95
2021/08/14 13:28:47;;;;;;;11.02;9.00;;;;;;;;;;5055043;28;20389;-95
2021/08/14 13:31:14;;;;;;;10.30;9.30;;;;;;;;;;5055734;28;20396;-96
2021/08/14 13:33:43;;;;;;;10.25;9.20;;;;;;;;;;5055565;28;20468;-96
2021/08/14 13:36:10;;;;;;;9.95;9.18;;;;;;;;;;5056632;28;20423;-95
2021/08/14 13:38:37;;;;;;;10.80;9.63;;;;;;;;;;5050952;28;20391;-95
2021/08/14 13:41:05;;;;;;;10.23;9.18;;;;;;;;;;5041787;28;20433;-95
2021/08/14 13:43:33;;;;;;;9.65;8.77;;;;;;;;;;5039377;28;20418;-96
2021/08/14 13:46:00;;;;;;;10.60;9.50;;;;;;;;;;5057290;28;20473;-96
2021/08/14 13:48:27;;;;;;;10.30;8.50;;;;;;;;;;5050265;28;20408;-96
2021/08/14 13:50:57;;;;;;;11.40;9.82;;;;;;;;;;5057571;28;20545;-96
2021/08/14 13:53:24;;;;;;;10.07;9.18;;;;;;;;;;5057433;28;20409;-96
2021/08/14 13:55:51;;;;;;;10.82;9.80;;;;;;;;;;5057490;28;20390;-96
2021/08/14 13:58:20;;;;;;;11.07;8.85;;;;;;;;;;5057425;28;20381;-96
2021/08/14 14:00:47;;;;;;;9.80;8.93;;;;;;;;;;5056780;28;20418;-96
2021/08/14 14:03:14;;;;;;;10.07;9.00;;;;;;;;;;5056918;28;20417;-96
2021/08/14 14:05:41;;;;;;;10.05;9.05;;;;;;;;;;5046082;28;20401;-96
2021/08/14 14:08:10;;;;;;;10.43;8.77;;;;;;;;;;5056905;28;20393;-96
2021/08/14 14:10:39;;;;;;;10.18;8.77;;;;;;;;;;5057286;28;20393;-96
2021/08/14 14:13:06;;;;;;;8.93;8.13;;;;;;;;;;5057031;28;20385;-96
2021/08/14 14:15:33;;;;;;;10.10;9.02;;;;;;;;;;5047051;28;20395;-96
2021/08/14 14:18:00;;;;;;;10.32;9.13;;;;;;;;;;5036270;28;20414;-96
2021/08/14 14:20:27;;;;;;;10.77;9.68;;;;;;;;;;5024446;28;20399;-96
2021/08/14 14:22:55;;;;;;;10.45;8.93;;;;;;;;;;5056945;28;20416;-96
2021/08/14 14:25:24;;;;;;;9.48;8.45;;;;;;;;;;5056776;28;20378;-96
2021/08/14 14:27:51;;;;;;;10.27;9.18;;;;;;;;;;5039427;28;20486;-96
2021/08/14 14:30:19;;;;;;;10.57;9.48;;;;;;;;;;5050978;28;20413;-96
2021/08/14 14:32:46;;;;;;;10.67;9.07;;;;;;;;;;5030172;28;20432;-96
2021/08/14 14:35:14;;;;;;;10.57;9.13;;;;;;;;;;5028101;28;20497;-96
2021/08/14 14:37:41;;;;;;;9.13;8.32;;;;;;;;;;5047578;28;20417;-96
2021/08/14 14:42:59;;;;;;;9.82;8.90;;;;;;;;;;5039606;28;20421;-96
2021/08/14 14:45:29;;;;;;;9.67;8.60;;;;;;;;;;5042873;28;20436;-96
2021/08/14 14:48:02;;;;;;;9.40;8.32;;;;;;;;;;5026552;28;20406;-96
2021/08/14 14:50:31;;;;;;;9.05;8.18;;;;;;;;;;5047833;28;20411;-96
2021/08/14 14:52:59;;;;;;;9.05;8.25;;;;;;;;;;5046760;28;20407;-96
2021/08/14 14:58:15;;;;;;;9.10;8.02;;;;;;;;;;5048339;28;20440;-96
2021/08/14 15:00:46;;;;;;;10.95;8.32;;;;;;;;;;5056251;28;20395;-96
2021/08/14 15:06:00;;;;;;;8.73;7.78;;;;;;;;;;5045136;28;20443;-96
2021/08/14 15:08:34;;;;;;;8.82;8.02;;;;;;;;;;5034982;28;20433;-96
2021/08/14 15:11:03;;;;;;;9.47;7.63;;;;;;;;;;5044499;28;20404;-95
2021/08/14 15:13:37;;;;;;;9.07;8.17;;;;;;;;;;5044393;28;20405;-96
2021/08/14 15:16:59;;;;;;;9.10;8.20;;;;;;;;;;5033281;28;20412;-95
2021/08/14 15:19:31;;;;;;;8.88;7.85;;;;;;;;;;5037606;28;20412;-96
2021/08/14 15:22:02;;;;;;;9.10;7.75;;;;;;;;;;5025666;28;20415;-96
2021/08/14 15:24:32;;;;;;;8.30;7.40;;;;;;;;;;5030908;28;20415;-96
2021/08/14 15:26:59;;;;;;;8.65;7.78;;;;;;;;;;5010887;28;20409;-96
2021/08/14 15:29:31;;;;;;;8.65;7.70;;;;;;;;;;5018040;28;20474;-96
2021/08/14 15:32:01;;;;;;;8.93;8.00;;;;;;;;;;5006517;28;20407;-96
2021/08/14 15:34:29;;;;;;;8.40;7.60;;;;;;;;;;5014843;28;20460;-96
2021/08/14 15:36:56;;;;;;;8.45;7.40;;;;;;;;;;5017062;28;20411;-96
2021/08/14 15:39:36;;;;;;;8.15;7.43;;;;;;;;;;5014631;28;20498;-96
2021/08/14 15:42:10;;;;;;;9.47;7.60;;;;;;;;;;5029037;28;20755;-96
2021/08/14 15:44:42;;;;;;;7.95;7.22;;;;;;;;;;5014152;28;20423;-96
2021/08/14 15:47:11;;;;;;;8.02;7.30;;;;;;;;;;5004365;28;20424;-96
2021/08/14 15:49:56;;;;;;;8.27;7.50;;;;;;;;;;5016645;28;20486;-96
2021/08/14 15:52:26;;;;;;;8.47;7.67;;;;;;;;;;5020971;28;20426;-96
2021/08/14 15:54:59;;;;;;;8.68;7.40;;;;;;;;;;5019361;28;20470;-96
2021/08/14 15:57:36;;;;;;;9.35;7.40;;;;;;;;;;4997299;28;20432;-96
2021/08/14 16:03:16;;;;;;;8.77;7.77;;;;;;;;;;5006461;28;20431;-96
2021/08/14 16:05:44;;;;;;;8.18;7.40;;;;;;;;;;5015929;28;20420;-96
2021/08/14 16:14:42;;;;;;;9.23;7.55;;;;;;;;;;5043917;28;20408;-96
2021/08/14 16:17:12;;;;;;;8.00;7.20;;;;;;;;;;5026465;28;20432;-93
2021/08/14 16:19:39;;;;;;;9.90;7.60;;;;;;;;;;5021589;28;20729;-92
2021/08/14 16:22:06;;;;;;;8.38;7.57;;;;;;;;;;5014626;28;20737;-90
2021/08/14 16:24:33;;;;;;;8.77;7.20;;;;;;;;;;5019414;28;20774;-93
2021/08/14 16:27:00;;;;;;;8.02;7.30;;;;;;;;;;5031810;28;20419;-92
2021/08/14 16:29:27;;;;;;;7.65;7.05;;;;;;;;;;5021179;28;20413;-93
2021/08/14 16:31:54;;;;;;;8.13;6.93;;;;;;;;;;5016671;28;20411;-95
2021/08/14 16:34:22;;;;;;;8.40;7.50;;;;;;;;;;5012490;28;20473;-91
2021/08/14 16:36:49;;;;;;;8.57;7.20;;;;;;;;;;5015516;28;20392;-92
2021/08/14 16:39:16;;;;;;;8.20;7.22;;;;;;;;;;5026695;28;20429;-90